M/V C0sta Favolosa — ICPK — position and weather

sailwx.info

Track history (hours):
 
Tides and Currents Weather Stations Pressure Air Temp Water Temp Dewpoint Dewpoint Depression Visibility Wind Speed Wind Dir Waves Ship Positions

M/V C0sta Favolosa

Last reported at 2017-May-25 10:30 UTC. Time now 2017-May-25 10:33 UTC.
Position N 57°09' E 011°36'.

Length 289 m; draft 8.3 m.

Type: Ship. MMSI: 247311100.

Date/timePositionNaut miles runAvg speedWind from/ knotsBaromVisibWave heightAir tempDewpointWater temp
2017-May-25 10:30N 57°09' E 011°36'612.0
2017-May-25 10:00N 57°14' E 011°32'611.8
2017-May-25 09:30N 57°20' E 011°29'816.2
2017-May-25 09:00N 57°27' E 011°24'815.1
2017-May-25 08:30N 57°33' E 011°14'815.4
2017-May-25 08:01N 57°38' E 011°03'816.2
2017-May-25 07:30N 57°44' E 010°54'816.9
2017-May-25 07:00N 57°48' E 010°40'815.3
2017-May-25 06:30N 57°49' E 010°26'612.6
2017-May-25 06:00N 57°49' E 010°14'612.9
2017-May-25 05:30N 57°49' E 010°02'713.1
2017-May-25 04:59N 57°49' E 009°49'912.9
2017-May-25 04:17N 57°44' E 009°34'513.1
2017-May-25 03:56N 57°42' E 009°27'613.2
2017-May-25 03:30N 57°39' E 009°18'2213.1
2017-May-25 01:49N 57°27' E 008°42'512.8
2017-May-25 01:27N 57°25' E 008°35'2811.7
2017-May-24 23:06N 57°06' E 007°59'21913.8
2017-May-24 07:19N 53°59' E 004°37'9515.9
2017-May-24 01:22N 52°41' E 003°08'720.6
2017-May-24 01:00N 52°34' E 003°02'1420.8
2017-May-24 00:21N 52°22' E 002°53'4118.1
2017-May-23 22:07N 51°53' E 002°07'215.9
2017-May-23 22:00N 51°52' E 002°05'816.0
2017-May-23 21:30N 51°48' E 001°53'714.6
2017-May-23 21:00N 51°51' E 001°42'611.5
2017-May-23 20:31N 51°53' E 001°34'510.3
2017-May-23 20:00N 51°56' E 001°27'510.2
2017-May-23 19:31N 51°57' E 001°19'2 3.8
2017-May-23 19:00N 51°57' E 001°16'0 0.0
2017-May-23 18:29N 51°57' E 001°16'0 0.0
2017-May-23 17:58N 51°57' E 001°16'0 0.0
2017-May-23 17:28N 51°57' E 001°16'0 0.0
2017-May-23 16:58N 51°57' E 001°16'0 0.0
2017-May-23 16:28N 51°57' E 001°16'0 0.0
2017-May-23 15:58N 51°57' E 001°16'0 0.0
2017-May-23 15:28N 51°57' E 001°16'0 0.0
2017-May-23 14:58N 51°57' E 001°16'0 0.0
2017-May-23 13:58N 51°57' E 001°16'0 0.0
2017-May-23 13:30N 51°57' E 001°16'0 0.0
2017-May-23 13:00N 51°57' E 001°16'0 0.0
2017-May-23 12:30N 51°57' E 001°16'0 0.0
2017-May-23 12:00N 51°57' E 001°16'0 0.0
2017-May-23 11:30N 51°57' E 001°16'0 0.0
2017-May-23 11:00N 51°57' E 001°16'0 0.0
2017-May-23 10:30N 51°57' E 001°16'0 0.0
2017-May-23 10:00N 51°57' E 001°16'0 0.0
2017-May-23 09:30N 51°57' E 001°16'0 0.0
2017-May-23 09:00N 51°57' E 001°16'0 0.0
2017-May-23 08:30N 51°57' E 001°16'0 0.0
2017-May-23 08:00N 51°57' E 001°16'0 0.0
2017-May-23 07:29N 51°57' E 001°16'0 0.0
2017-May-23 06:58N 51°57' E 001°16'0 0.1
2017-May-23 06:30N 51°57' E 001°16'2 3.3
2017-May-23 06:00N 51°57' E 001°18'4 8.1
2017-May-23 05:30N 51°56' E 001°25'611.8
2017-May-23 05:00N 51°54' E 001°34'5 9.7
2017-May-23 04:31N 51°52' E 001°40'4 8.8
2017-May-23 04:00N 51°50' E 001°47'917.4
2017-May-23 03:31N 51°42' E 001°49'816.5
2017-May-23 03:00N 51°34' E 001°52'917.5
2017-May-23 02:30N 51°27' E 002°01'714.0
2017-May-23 02:00N 51°20' E 001°58'816.9
2017-May-23 01:30N 51°13' E 001°49'918.0
2017-May-23 01:00N 51°06' E 001°40'918.1
2017-May-23 00:30N 50°60' E 001°30'917.7
2017-May-23 00:00N 50°52' E 001°24'918.3
2017-May-22 23:30N 50°43' E 001°20'1019.5
2017-May-22 23:00N 50°37' E 001°08'918.8
2017-May-22 22:30N 50°31' E 000°56'918.9
2017-May-22 22:00N 50°29' E 000°41'918.8
2017-May-22 21:30N 50°27' E 000°27'1019.8
2017-May-22 21:00N 50°24' E 000°12'1020.8
2017-May-22 20:30N 50°20' W 000°03'1121.1
2017-May-22 20:00N 50°14' W 000°17'1121.4
2017-May-22 19:30N 50°09' W 000°32'1122.1
2017-May-22 19:00N 50°04' W 000°46'1122.4
2017-May-22 18:30N 49°58' W 001°02'1122.7
2017-May-22 18:00N 49°52' W 001°17'18 1.5
2017-May-22 05:50N 49°39' W 001°37'1 3.0
2017-May-22 05:31N 49°40' W 001°38'5 9.3
2017-May-22 05:00N 49°43' W 001°43'510.6
2017-May-22 04:30N 49°46' W 001°50'917.1
2017-May-22 04:00N 49°49' W 002°02'816.8
2017-May-22 03:30N 49°52' W 002°14'918.4
2017-May-22 03:00N 49°52' W 002°29'1019.2
2017-May-22 02:31N 49°51' W 002°43'1019.4
2017-May-22 02:01N 49°48' W 002°58'1019.4
2017-May-22 01:31N 49°44' W 003°11'1019.2
2017-May-22 01:01N 49°39' W 003°24'1019.1
2017-May-22 00:31N 49°34' W 003°37'918.9
2017-May-22 00:00N 49°29' W 003°50'918.8
2017-May-21 23:31N 49°25' W 004°02'918.5
2017-May-21 23:01N 49°21' W 004°15'918.6
2017-May-21 22:30N 49°16' W 004°27'918.5
2017-May-21 22:00N 49°11' W 004°39'918.5
2017-May-21 21:31N 49°06' W 004°51'1018.4
2017-May-21 20:59N 49°01' W 005°03'815.6
2017-May-21 20:30N 48°57' W 005°13'917.9
2017-May-21 20:00N 48°52' W 005°24'917.9
2017-May-21 19:30N 48°47' W 005°35'3418.2
2017-May-21 17:38N 48°16' W 005°59'1818.0
2017-May-21 16:38N 48°01' W 006°12'318.0
2017-May-21 16:30N 47°59' W 006°14'3518.1
2017-May-21 14:33N 47°27' W 006°38'32117.0
2017-May-20 19:43N 42°25' W 009°08'418.3
2017-May-20 19:30N 42°22' W 009°04'170 7.6
2017-May-19 21:18N 39°35' W 009°45'719.0
2017-May-19 20:57N 39°29' W 009°47'819.0
2017-May-19 20:31N 39°21' W 009°46'1019.2
2017-May-19 20:00N 39°11' W 009°45'918.9
2017-May-19 19:30N 39°02' W 009°44'919.0
2017-May-19 19:00N 38°52' W 009°43'918.9
2017-May-19 18:31N 38°43' W 009°42'815.2
2017-May-19 18:01N 38°37' W 009°36'917.1
2017-May-19 17:31N 38°35' W 009°26'816.8
2017-May-19 17:00N 38°41' W 009°18'510.5
2017-May-19 16:30N 38°41' W 009°11'3 5.8
2017-May-19 15:59N 38°43' W 009°07'0 0.0
2017-May-19 15:29N 38°43' W 009°07'0 0.0
2017-May-19 14:59N 38°43' W 009°07'0 0.0
2017-May-19 13:58N 38°43' W 009°07'0 0.0
2017-May-19 13:29N 38°43' W 009°07'0 0.0
2017-May-19 12:58N 38°43' W 009°07'0 0.0
2017-May-19 12:30N 38°43' W 009°07'0 0.0
2017-May-19 12:00N 38°43' W 009°07'0 0.0
2017-May-19 11:30N 38°43' W 009°07'0 0.0
2017-May-19 10:55N 38°43' W 009°07'0 0.0
2017-May-19 10:28N 38°43' W 009°07'0 0.0
2017-May-19 10:01N 38°43' W 009°07'0 0.0
2017-May-19 09:31N 38°43' W 009°07'0 0.0
2017-May-19 09:00N 38°43' W 009°07'0 0.0
2017-May-19 08:31N 38°43' W 009°07'0 0.0
2017-May-19 07:58N 38°43' W 009°07'0 0.0
2017-May-19 07:31N 38°43' W 009°07'0 0.0
2017-May-19 07:01N 38°43' W 009°07'0 0.0
2017-May-19 06:31N 38°43' W 009°07'0 0.7
2017-May-19 06:01N 38°42' W 009°07'4 7.1
2017-May-19 05:31N 38°41' W 009°11'4 7.4
2017-May-19 05:01N 38°41' W 009°16'611.6
2017-May-19 04:30N 38°38' W 009°22'816.3
2017-May-19 04:00N 38°31' W 009°28'816.9
2017-May-19 03:30N 38°22' W 009°27'816.8
2017-May-19 03:00N 38°14' W 009°28'918.9
2017-May-19 02:31N 38°04' W 009°27'1019.2
2017-May-19 02:00N 37°55' W 009°27'1019.1
2017-May-19 01:30N 37°45' W 009°27'21316.6
2017-May-18 12:42N 35°58' W 005°38'317.3
2017-May-18 12:30N 35°58' W 005°34'815.6
2017-May-18 12:01N 36°01' W 005°25'714.9
2017-May-18 11:30N 36°08' W 005°23'1 1.4
2017-May-18 10:58N 36°09' W 005°22'0 0.0
2017-May-18 10:28N 36°09' W 005°22'0 0.0
2017-May-18 09:55N 36°09' W 005°22'0 0.0
2017-May-18 09:25N 36°09' W 005°22'0 0.0
2017-May-18 08:55N 36°09' W 005°22'0 0.0
2017-May-18 08:28N 36°09' W 005°22'0 0.0
2017-May-18 07:58N 36°09' W 005°22'0 0.0
2017-May-18 07:25N 36°09' W 005°22'0 0.0
2017-May-18 06:58N 36°09' W 005°22'0 0.0
2017-May-18 06:24N 36°09' W 005°22'0 0.0
2017-May-18 05:17N 36°09' W 005°22'1 3.4
2017-May-18 05:00N 36°08' W 005°23'3 6.0
2017-May-18 04:30N 36°05' W 005°21'611.9
2017-May-18 04:01N 36°05' W 005°14'815.0
2017-May-18 03:29N 36°06' W 005°04'1613.2
2017-May-18 02:14N 36°08' W 004°44'12712.6
2017-May-17 16:10N 36°28' W 002°08'1013.3
2017-May-17 15:26N 36°34' W 001°59'1019.9
2017-May-17 14:57N 36°40' W 001°49'3 6.2
2017-May-17 14:27N 36°42' W 001°46'1512.9
2017-May-17 13:18N 36°52' W 001°32'513.1
2017-May-17 12:55N 36°55' W 001°28'812.9
2017-May-17 12:18N 37°01' W 001°20'412.5
2017-May-17 12:00N 37°03' W 001°17'812.7
2017-May-17 11:22N 37°08' W 001°09'512.8
2017-May-17 10:59N 37°11' W 001°04'713.2
2017-May-17 10:27N 37°16' W 000°58'1013.2
2017-May-17 09:43N 37°23' W 000°49'313.3
2017-May-17 09:30N 37°25' W 000°46'912.6
2017-May-17 08:49N 37°31' W 000°38'514.9
2017-May-17 08:30N 37°34' W 000°34'918.2
2017-May-17 08:00N 37°41' W 000°27'1018.1
2017-May-17 07:27N 37°49' W 000°20'4813.5
2017-May-17 03:55N 38°29' E 000°13'716.4
2017-May-17 03:30N 38°35' E 000°18'1120.0
2017-May-17 02:58N 38°44' E 000°25'919.8
2017-May-17 02:30N 38°52' E 000°30'1620.0
2017-May-17 01:42N 39°07' E 000°39'420.3
2017-May-17 01:30N 39°10' E 000°42'1020.1
2017-May-17 01:00N 39°19' E 000°48'1219.7
2017-May-17 00:25N 39°29' E 000°55'919.8
2017-May-16 23:57N 39°37' E 001°01'919.7
2017-May-16 23:30N 39°45' E 001°06'1019.9
2017-May-16 23:00N 39°54' E 001°12'1019.9
2017-May-16 22:30N 40°03' E 001°19'1019.7
2017-May-16 22:00N 40°11' E 001°25'1019.5
2017-May-16 21:30N 40°20' E 001°31'918.8
2017-May-16 21:00N 40°28' E 001°37'917.7
2017-May-16 20:30N 40°36' E 001°42'919.0
2017-May-16 20:01N 40°44' E 001°48'1019.0
2017-May-16 19:30N 40°53' E 001°54'1019.4
2017-May-16 19:00N 41°01' E 002°00'1019.4
2017-May-16 18:30N 41°10' E 002°06'815.5
2017-May-16 18:00N 41°17' E 002°11'4 8.4
2017-May-16 17:30N 41°21' E 002°10'0 0.2
2017-May-16 16:55N 41°21' E 002°10'0 0.0
2017-May-16 16:25N 41°21' E 002°10'0 0.0
2017-May-16 15:37N 41°21' E 002°10'0 0.0
2017-May-16 15:25N 41°21' E 002°10'0 0.0
2017-May-16 14:55N 41°21' E 002°10'0 0.0
2017-May-16 14:24N 41°21' E 002°10'0 0.0
2017-May-16 13:30N 41°21' E 002°10'0 0.0
2017-May-16 12:56N 41°21' E 002°10'0 0.0
2017-May-16 12:23N 41°21' E 002°10'0 0.0
2017-May-16 11:56N 41°21' E 002°10'0 0.0
2017-May-16 11:30N 41°21' E 002°10'1 1.5
2017-May-16 10:55N 41°20' E 002°10'3 8.2
2017-May-16 10:30N 41°17' E 002°11'5 9.3
2017-May-16 10:00N 41°13' E 002°14'714.1
2017-May-16 09:30N 41°13' E 002°23'1019.3
2017-May-16 09:00N 41°17' E 002°35'919.0
2017-May-16 08:30N 41°21' E 002°46'1019.5
2017-May-16 08:00N 41°25' E 002°58'1416.9
2017-May-16 07:09N 41°33' E 003°13'214.6
2017-May-16 07:00N 41°35' E 003°16'8017.8
2017-May-16 02:32N 42°13' E 004°50'3819.1
2017-May-16 00:31N 42°32' E 005°35'319.5
2017-May-16 00:22N 42°33' E 005°38'919.2
2017-May-15 23:55N 42°37' E 005°49'3919.5
2017-May-15 21:54N 42°57' E 006°35'1119.8
2017-May-15 21:22N 43°03' E 006°47'719.6
2017-May-15 21:00N 43°07' E 006°55'1019.4
2017-May-15 20:31N 43°13' E 007°06'1019.5
2017-May-15 20:00N 43°19' E 007°17'1019.9
2017-May-15 19:30N 43°24' E 007°28'1019.8
2017-May-15 19:00N 43°31' E 007°38'1019.7
2017-May-15 18:30N 43°37' E 007°49'1019.6
2017-May-15 18:01N 43°43' E 007°59'1019.3
2017-May-15 17:31N 43°49' E 008°09'918.6
2017-May-15 17:00N 43°55' E 008°20'918.9
2017-May-15 16:30N 44°03' E 008°26'1018.9
2017-May-15 16:00N 44°12' E 008°32'713.5
2017-May-15 15:30N 44°18' E 008°31'2 3.0
2017-May-15 15:00N 44°19' E 008°29'0 0.0
2017-May-15 13:59N 44°19' E 008°29'0 0.0
2017-May-15 13:29N 44°19' E 008°29'0 0.0
2017-May-15 12:58N 44°19' E 008°29'0 0.0
2017-May-15 12:28N 44°19' E 008°29'0 0.0
2017-May-15 12:00N 44°19' E 008°29'0 0.0
2017-May-15 11:30N 44°19' E 008°29'0 0.0
2017-May-15 11:00N 44°19' E 008°29'  
Track history (hours):
 
Tides and Currents Weather Stations Pressure Air Temp Water Temp Dewpoint Dewpoint Depression Visibility Wind Speed Wind Dir Waves Ship Positions

M/V C0sta Favolosa

Last reported at 2017-May-25 10:30 UTC. Time now 2017-May-25 10:33 UTC.
Position N 57°09' E 011°36'.

Length 289 m; draft 8.3 m.

Type: Ship. MMSI: 247311100.

Date/timePositionNaut miles runAvg speedWind from/ knotsBaromVisibWave heightAir tempDewpointWater temp
2017-May-25 10:30N 57°09' E 011°36'612.0
2017-May-25 10:00N 57°14' E 011°32'611.8
2017-May-25 09:30N 57°20' E 011°29'816.2
2017-May-25 09:00N 57°27' E 011°24'815.1
2017-May-25 08:30N 57°33' E 011°14'815.4
2017-May-25 08:01N 57°38' E 011°03'816.2
2017-May-25 07:30N 57°44' E 010°54'816.9
2017-May-25 07:00N 57°48' E 010°40'815.3
2017-May-25 06:30N 57°49' E 010°26'612.6
2017-May-25 06:00N 57°49' E 010°14'612.9
2017-May-25 05:30N 57°49' E 010°02'713.1
2017-May-25 04:59N 57°49' E 009°49'912.9
2017-May-25 04:17N 57°44' E 009°34'513.1
2017-May-25 03:56N 57°42' E 009°27'613.2
2017-May-25 03:30N 57°39' E 009°18'2213.1
2017-May-25 01:49N 57°27' E 008°42'512.8
2017-May-25 01:27N 57°25' E 008°35'2811.7
2017-May-24 23:06N 57°06' E 007°59'21913.8
2017-May-24 07:19N 53°59' E 004°37'9515.9
2017-May-24 01:22N 52°41' E 003°08'720.6
2017-May-24 01:00N 52°34' E 003°02'1420.8
2017-May-24 00:21N 52°22' E 002°53'4118.1
2017-May-23 22:07N 51°53' E 002°07'215.9
2017-May-23 22:00N 51°52' E 002°05'816.0
2017-May-23 21:30N 51°48' E 001°53'714.6
2017-May-23 21:00N 51°51' E 001°42'611.5
2017-May-23 20:31N 51°53' E 001°34'510.3
2017-May-23 20:00N 51°56' E 001°27'510.2
2017-May-23 19:31N 51°57' E 001°19'2 3.8
2017-May-23 19:00N 51°57' E 001°16'0 0.0
2017-May-23 18:29N 51°57' E 001°16'0 0.0
2017-May-23 17:58N 51°57' E 001°16'0 0.0
2017-May-23 17:28N 51°57' E 001°16'0 0.0
2017-May-23 16:58N 51°57' E 001°16'0 0.0
2017-May-23 16:28N 51°57' E 001°16'0 0.0
2017-May-23 15:58N 51°57' E 001°16'0 0.0
2017-May-23 15:28N 51°57' E 001°16'0 0.0
2017-May-23 14:58N 51°57' E 001°16'0 0.0
2017-May-23 13:58N 51°57' E 001°16'0 0.0
2017-May-23 13:30N 51°57' E 001°16'0 0.0
2017-May-23 13:00N 51°57' E 001°16'0 0.0
2017-May-23 12:30N 51°57' E 001°16'0 0.0
2017-May-23 12:00N 51°57' E 001°16'0 0.0
2017-May-23 11:30N 51°57' E 001°16'0 0.0
2017-May-23 11:00N 51°57' E 001°16'0 0.0
2017-May-23 10:30N 51°57' E 001°16'0 0.0
2017-May-23 10:00N 51°57' E 001°16'0 0.0
2017-May-23 09:30N 51°57' E 001°16'0 0.0
2017-May-23 09:00N 51°57' E 001°16'0 0.0
2017-May-23 08:30N 51°57' E 001°16'0 0.0
2017-May-23 08:00N 51°57' E 001°16'0 0.0
2017-May-23 07:29N 51°57' E 001°16'0 0.0
2017-May-23 06:58N 51°57' E 001°16'0 0.1
2017-May-23 06:30N 51°57' E 001°16'2 3.3
2017-May-23 06:00N 51°57' E 001°18'4 8.1
2017-May-23 05:30N 51°56' E 001°25'611.8
2017-May-23 05:00N 51°54' E 001°34'5 9.7
2017-May-23 04:31N 51°52' E 001°40'4 8.8
2017-May-23 04:00N 51°50' E 001°47'917.4
2017-May-23 03:31N 51°42' E 001°49'816.5
2017-May-23 03:00N 51°34' E 001°52'917.5
2017-May-23 02:30N 51°27' E 002°01'714.0
2017-May-23 02:00N 51°20' E 001°58'816.9
2017-May-23 01:30N 51°13' E 001°49'918.0
2017-May-23 01:00N 51°06' E 001°40'918.1
2017-May-23 00:30N 50°60' E 001°30'917.7
2017-May-23 00:00N 50°52' E 001°24'918.3
2017-May-22 23:30N 50°43' E 001°20'1019.5
2017-May-22 23:00N 50°37' E 001°08'918.8
2017-May-22 22:30N 50°31' E 000°56'918.9
2017-May-22 22:00N 50°29' E 000°41'918.8
2017-May-22 21:30N 50°27' E 000°27'1019.8
2017-May-22 21:00N 50°24' E 000°12'1020.8
2017-May-22 20:30N 50°20' W 000°03'1121.1
2017-May-22 20:00N 50°14' W 000°17'1121.4
2017-May-22 19:30N 50°09' W 000°32'1122.1
2017-May-22 19:00N 50°04' W 000°46'1122.4
2017-May-22 18:30N 49°58' W 001°02'1122.7
2017-May-22 18:00N 49°52' W 001°17'18 1.5
2017-May-22 05:50N 49°39' W 001°37'1 3.0
2017-May-22 05:31N 49°40' W 001°38'5 9.3
2017-May-22 05:00N 49°43' W 001°43'510.6
2017-May-22 04:30N 49°46' W 001°50'917.1
2017-May-22 04:00N 49°49' W 002°02'816.8
2017-May-22 03:30N 49°52' W 002°14'918.4
2017-May-22 03:00N 49°52' W 002°29'1019.2
2017-May-22 02:31N 49°51' W 002°43'1019.4
2017-May-22 02:01N 49°48' W 002°58'1019.4
2017-May-22 01:31N 49°44' W 003°11'1019.2
2017-May-22 01:01N 49°39' W 003°24'1019.1
2017-May-22 00:31N 49°34' W 003°37'918.9
2017-May-22 00:00N 49°29' W 003°50'918.8
2017-May-21 23:31N 49°25' W 004°02'918.5
2017-May-21 23:01N 49°21' W 004°15'918.6
2017-May-21 22:30N 49°16' W 004°27'918.5
2017-May-21 22:00N 49°11' W 004°39'918.5
2017-May-21 21:31N 49°06' W 004°51'1018.4
2017-May-21 20:59N 49°01' W 005°03'815.6
2017-May-21 20:30N 48°57' W 005°13'917.9
2017-May-21 20:00N 48°52' W 005°24'917.9
2017-May-21 19:30N 48°47' W 005°35'3418.2
2017-May-21 17:38N 48°16' W 005°59'1818.0
2017-May-21 16:38N 48°01' W 006°12'318.0
2017-May-21 16:30N 47°59' W 006°14'3518.1
2017-May-21 14:33N 47°27' W 006°38'32117.0
2017-May-20 19:43N 42°25' W 009°08'418.3
2017-May-20 19:30N 42°22' W 009°04'170 7.6
2017-May-19 21:18N 39°35' W 009°45'719.0
2017-May-19 20:57N 39°29' W 009°47'819.0
2017-May-19 20:31N 39°21' W 009°46'1019.2
2017-May-19 20:00N 39°11' W 009°45'918.9
2017-May-19 19:30N 39°02' W 009°44'919.0
2017-May-19 19:00N 38°52' W 009°43'918.9
2017-May-19 18:31N 38°43' W 009°42'815.2
2017-May-19 18:01N 38°37' W 009°36'917.1
2017-May-19 17:31N 38°35' W 009°26'816.8
2017-May-19 17:00N 38°41' W 009°18'510.5
2017-May-19 16:30N 38°41' W 009°11'3 5.8
2017-May-19 15:59N 38°43' W 009°07'0 0.0
2017-May-19 15:29N 38°43' W 009°07'0 0.0
2017-May-19 14:59N 38°43' W 009°07'0 0.0
2017-May-19 13:58N 38°43' W 009°07'0 0.0
2017-May-19 13:29N 38°43' W 009°07'0 0.0
2017-May-19 12:58N 38°43' W 009°07'0 0.0
2017-May-19 12:30N 38°43' W 009°07'0 0.0
2017-May-19 12:00N 38°43' W 009°07'0 0.0
2017-May-19 11:30N 38°43' W 009°07'0 0.0
2017-May-19 10:55N 38°43' W 009°07'0 0.0
2017-May-19 10:28N 38°43' W 009°07'0 0.0
2017-May-19 10:01N 38°43' W 009°07'0 0.0
2017-May-19 09:31N 38°43' W 009°07'0 0.0
2017-May-19 09:00N 38°43' W 009°07'0 0.0
2017-May-19 08:31N 38°43' W 009°07'0 0.0
2017-May-19 07:58N 38°43' W 009°07'0 0.0
2017-May-19 07:31N 38°43' W 009°07'0 0.0
2017-May-19 07:01N 38°43' W 009°07'0 0.0
2017-May-19 06:31N 38°43' W 009°07'0 0.7
2017-May-19 06:01N 38°42' W 009°07'4 7.1
2017-May-19 05:31N 38°41' W 009°11'4 7.4
2017-May-19 05:01N 38°41' W 009°16'611.6
2017-May-19 04:30N 38°38' W 009°22'816.3
2017-May-19 04:00N 38°31' W 009°28'816.9
2017-May-19 03:30N 38°22' W 009°27'816.8
2017-May-19 03:00N 38°14' W 009°28'918.9
2017-May-19 02:31N 38°04' W 009°27'1019.2
2017-May-19 02:00N 37°55' W 009°27'1019.1
2017-May-19 01:30N 37°45' W 009°27'21316.6
2017-May-18 12:42N 35°58' W 005°38'317.3
2017-May-18 12:30N 35°58' W 005°34'815.6
2017-May-18 12:01N 36°01' W 005°25'714.9
2017-May-18 11:30N 36°08' W 005°23'1 1.4
2017-May-18 10:58N 36°09' W 005°22'0 0.0
2017-May-18 10:28N 36°09' W 005°22'0 0.0
2017-May-18 09:55N 36°09' W 005°22'0 0.0
2017-May-18 09:25N 36°09' W 005°22'0 0.0
2017-May-18 08:55N 36°09' W 005°22'0 0.0
2017-May-18 08:28N 36°09' W 005°22'0 0.0
2017-May-18 07:58N 36°09' W 005°22'0 0.0
2017-May-18 07:25N 36°09' W 005°22'0 0.0
2017-May-18 06:58N 36°09' W 005°22'0 0.0
2017-May-18 06:24N 36°09' W 005°22'0 0.0
2017-May-18 05:17N 36°09' W 005°22'1 3.4
2017-May-18 05:00N 36°08' W 005°23'3 6.0
2017-May-18 04:30N 36°05' W 005°21'611.9
2017-May-18 04:01N 36°05' W 005°14'815.0
2017-May-18 03:29N 36°06' W 005°04'1613.2
2017-May-18 02:14N 36°08' W 004°44'12712.6
2017-May-17 16:10N 36°28' W 002°08'1013.3
2017-May-17 15:26N 36°34' W 001°59'1019.9
2017-May-17 14:57N 36°40' W 001°49'3 6.2
2017-May-17 14:27N 36°42' W 001°46'1512.9
2017-May-17 13:18N 36°52' W 001°32'513.1
2017-May-17 12:55N 36°55' W 001°28'812.9
2017-May-17 12:18N 37°01' W 001°20'412.5
2017-May-17 12:00N 37°03' W 001°17'812.7
2017-May-17 11:22N 37°08' W 001°09'512.8
2017-May-17 10:59N 37°11' W 001°04'713.2
2017-May-17 10:27N 37°16' W 000°58'1013.2
2017-May-17 09:43N 37°23' W 000°49'313.3
2017-May-17 09:30N 37°25' W 000°46'912.6
2017-May-17 08:49N 37°31' W 000°38'514.9
2017-May-17 08:30N 37°34' W 000°34'918.2
2017-May-17 08:00N 37°41' W 000°27'1018.1
2017-May-17 07:27N 37°49' W 000°20'4813.5
2017-May-17 03:55N 38°29' E 000°13'716.4
2017-May-17 03:30N 38°35' E 000°18'1120.0
2017-May-17 02:58N 38°44' E 000°25'919.8
2017-May-17 02:30N 38°52' E 000°30'1620.0
2017-May-17 01:42N 39°07' E 000°39'420.3
2017-May-17 01:30N 39°10' E 000°42'1020.1
2017-May-17 01:00N 39°19' E 000°48'1219.7
2017-May-17 00:25N 39°29' E 000°55'919.8
2017-May-16 23:57N 39°37' E 001°01'919.7
2017-May-16 23:30N 39°45' E 001°06'1019.9
2017-May-16 23:00N 39°54' E 001°12'1019.9
2017-May-16 22:30N 40°03' E 001°19'1019.7
2017-May-16 22:00N 40°11' E 001°25'1019.5
2017-May-16 21:30N 40°20' E 001°31'918.8
2017-May-16 21:00N 40°28' E 001°37'917.7
2017-May-16 20:30N 40°36' E 001°42'919.0
2017-May-16 20:01N 40°44' E 001°48'1019.0
2017-May-16 19:30N 40°53' E 001°54'1019.4
2017-May-16 19:00N 41°01' E 002°00'1019.4
2017-May-16 18:30N 41°10' E 002°06'815.5
2017-May-16 18:00N 41°17' E 002°11'4 8.4
2017-May-16 17:30N 41°21' E 002°10'0 0.2
2017-May-16 16:55N 41°21' E 002°10'0 0.0
2017-May-16 16:25N 41°21' E 002°10'0 0.0
2017-May-16 15:37N 41°21' E 002°10'0 0.0
2017-May-16 15:25N 41°21' E 002°10'0 0.0
2017-May-16 14:55N 41°21' E 002°10'0 0.0
2017-May-16 14:24N 41°21' E 002°10'0 0.0
2017-May-16 13:30N 41°21' E 002°10'0 0.0
2017-May-16 12:56N 41°21' E 002°10'0 0.0
2017-May-16 12:23N 41°21' E 002°10'0 0.0
2017-May-16 11:56N 41°21' E 002°10'0 0.0
2017-May-16 11:30N 41°21' E 002°10'1 1.5
2017-May-16 10:55N 41°20' E 002°10'3 8.2
2017-May-16 10:30N 41°17' E 002°11'5 9.3
2017-May-16 10:00N 41°13' E 002°14'714.1
2017-May-16 09:30N 41°13' E 002°23'1019.3
2017-May-16 09:00N 41°17' E 002°35'919.0
2017-May-16 08:30N 41°21' E 002°46'1019.5
2017-May-16 08:00N 41°25' E 002°58'1416.9
2017-May-16 07:09N 41°33' E 003°13'214.6
2017-May-16 07:00N 41°35' E 003°16'8017.8
2017-May-16 02:32N 42°13' E 004°50'3819.1
2017-May-16 00:31N 42°32' E 005°35'319.5
2017-May-16 00:22N 42°33' E 005°38'919.2
2017-May-15 23:55N 42°37' E 005°49'3919.5
2017-May-15 21:54N 42°57' E 006°35'1119.8
2017-May-15 21:22N 43°03' E 006°47'719.6
2017-May-15 21:00N 43°07' E 006°55'1019.4
2017-May-15 20:31N 43°13' E 007°06'1019.5
2017-May-15 20:00N 43°19' E 007°17'1019.9
2017-May-15 19:30N 43°24' E 007°28'1019.8
2017-May-15 19:00N 43°31' E 007°38'1019.7
2017-May-15 18:30N 43°37' E 007°49'1019.6
2017-May-15 18:01N 43°43' E 007°59'1019.3
2017-May-15 17:31N 43°49' E 008°09'918.6
2017-May-15 17:00N 43°55' E 008°20'918.9
2017-May-15 16:30N 44°03' E 008°26'1018.9
2017-May-15 16:00N 44°12' E 008°32'713.5
2017-May-15 15:30N 44°18' E 008°31'2 3.0
2017-May-15 15:00N 44°19' E 008°29'0 0.0
2017-May-15 13:59N 44°19' E 008°29'0 0.0
2017-May-15 13:29N 44°19' E 008°29'0 0.0
2017-May-15 12:58N 44°19' E 008°29'0 0.0
2017-May-15 12:28N 44°19' E 008°29'0 0.0
2017-May-15 12:00N 44°19' E 008°29'0 0.0
2017-May-15 11:30N 44°19' E 008°29'0 0.0
2017-May-15 11:00N 44°19' E 008°29'  

Dump ship's entire track history